createdAt,value
2017-01-23T00:00:24.435Z,0
2017-01-23T00:01:25.111Z,0
2017-01-23T00:02:25.801Z,0
2017-01-23T00:03:26.476Z,0
2017-01-23T00:04:27.151Z,0
2017-01-23T00:05:27.833Z,0
2017-01-23T00:06:28.490Z,0
2017-01-23T00:07:29.163Z,0
2017-01-23T00:08:29.842Z,0
2017-01-23T00:09:30.505Z,0
2017-01-23T00:10:31.183Z,0
2017-01-23T00:11:31.854Z,0
2017-01-23T00:12:32.525Z,0
2017-01-23T00:13:33.192Z,0
2017-01-23T00:14:33.864Z,0
2017-01-23T00:15:34.541Z,0
2017-01-23T00:16:35.212Z,0
2017-01-23T00:17:35.885Z,0
2017-01-23T00:18:36.556Z,0
2017-01-23T00:19:37.231Z,0
2017-01-23T00:20:37.912Z,0
2017-01-23T00:21:38.580Z,0
2017-01-23T00:22:39.241Z,0
2017-01-23T00:23:39.918Z,0
2017-01-23T00:24:40.604Z,0
2017-01-23T00:25:41.272Z,0
2017-01-23T00:26:41.953Z,0
2017-01-23T00:27:42.648Z,0
2017-01-23T00:28:43.339Z,0
2017-01-23T00:29:44.038Z,0
2017-01-23T00:30:44.695Z,0
2017-01-23T00:31:45.518Z,0
2017-01-23T00:32:46.181Z,0
2017-01-23T00:33:46.873Z,0
2017-01-23T00:34:47.554Z,0
2017-01-23T00:35:48.234Z,0
2017-01-23T00:36:48.917Z,0
2017-01-23T00:37:49.594Z,0
2017-01-23T00:38:50.273Z,0
2017-01-23T00:39:50.948Z,0
2017-01-23T00:40:51.614Z,0
2017-01-23T00:41:52.297Z,0
2017-01-23T00:42:52.970Z,0
2017-01-23T00:43:53.634Z,0
2017-01-23T00:44:54.300Z,0
2017-01-23T00:45:54.963Z,0
2017-01-23T00:46:55.642Z,0
2017-01-23T00:47:56.305Z,0
2017-01-23T00:48:56.971Z,0
2017-01-23T00:49:57.633Z,0
2017-01-23T00:50:58.313Z,0
2017-01-23T00:51:58.986Z,0
2017-01-23T00:52:59.671Z,0
2017-01-23T00:54:00.352Z,0
2017-01-23T00:55:01.016Z,0
2017-01-23T00:56:01.687Z,0
2017-01-23T00:57:02.351Z,0
2017-01-23T00:58:03.015Z,0
2017-01-23T00:59:03.691Z,0
2017-01-23T01:00:04.354Z,0
2017-01-23T01:01:05.045Z,0
2017-01-23T01:02:05.709Z,0
2017-01-23T01:03:06.384Z,0
2017-01-23T01:04:07.043Z,0
2017-01-23T01:05:07.725Z,0
2017-01-23T01:06:08.394Z,0
2017-01-23T01:07:09.080Z,0
2017-01-23T01:08:09.746Z,0
2017-01-23T01:09:10.419Z,0
2017-01-23T01:10:11.086Z,0
2017-01-23T01:11:11.763Z,0
2017-01-23T01:12:12.433Z,0
2017-01-23T01:13:13.111Z,0
2017-01-23T01:14:13.772Z,0
2017-01-23T01:15:14.447Z,0
2017-01-23T01:16:15.120Z,0
2017-01-23T01:17:15.797Z,0
2017-01-23T01:18:16.471Z,0
2017-01-23T01:19:17.148Z,0
2017-01-23T01:20:17.816Z,0
2017-01-23T01:21:18.482Z,0
2017-01-23T01:22:19.150Z,0
2017-01-23T01:23:19.810Z,0
2017-01-23T01:24:20.504Z,0
2017-01-23T01:25:21.186Z,0
2017-01-23T01:26:21.856Z,0
2017-01-23T01:27:22.559Z,0
2017-01-23T01:28:23.270Z,0
2017-01-23T01:29:23.975Z,0
2017-01-23T01:30:24.672Z,0
2017-01-23T01:31:25.344Z,0
2017-01-23T01:32:26.013Z,0
2017-01-23T01:33:26.687Z,0
2017-01-23T01:34:27.346Z,0
2017-01-23T01:35:28.050Z,0
2017-01-23T01:36:28.686Z,0
2017-01-23T01:37:29.363Z,0
2017-01-23T01:38:30.040Z,0
2017-01-23T01:39:30.713Z,0
2017-01-23T01:40:31.382Z,0
2017-01-23T01:41:32.046Z,0
2017-01-23T01:42:32.726Z,0
2017-01-23T01:43:33.397Z,0
2017-01-23T01:44:34.071Z,0
2017-01-23T01:45:34.738Z,0
2017-01-23T01:46:35.414Z,0
2017-01-23T01:47:36.121Z,0
2017-01-23T01:48:36.765Z,0
2017-01-23T01:49:37.433Z,0
2017-01-23T01:50:38.104Z,0
2017-01-23T01:51:38.777Z,0
2017-01-23T01:52:39.440Z,0
2017-01-23T01:53:40.114Z,0
2017-01-23T01:54:40.785Z,0
2017-01-23T01:55:41.464Z,0
2017-01-23T01:56:42.139Z,0
2017-01-23T01:57:42.803Z,0
2017-01-23T01:58:43.526Z,0
2017-01-23T01:59:44.201Z,0
2017-01-23T02:00:44.866Z,0
2017-01-23T02:01:45.543Z,0
2017-01-23T02:02:46.216Z,0
2017-01-23T02:03:46.886Z,0
2017-01-23T02:04:47.563Z,0
2017-01-23T02:05:48.258Z,0
2017-01-23T02:06:48.928Z,0
2017-01-23T02:07:49.607Z,0
2017-01-23T02:08:50.284Z,0
2017-01-23T02:09:50.948Z,0
2017-01-23T02:10:51.643Z,0
2017-01-23T02:11:52.323Z,0
2017-01-23T02:12:52.998Z,0
2017-01-23T02:13:53.661Z,0
2017-01-23T02:14:54.355Z,0
2017-01-23T02:15:55.043Z,0
2017-01-23T02:16:55.714Z,0
2017-01-23T02:17:56.394Z,0
2017-01-23T02:18:57.107Z,0
2017-01-23T02:19:57.767Z,0
2017-01-23T02:20:58.434Z,0
2017-01-23T02:21:59.103Z,0
2017-01-23T02:22:59.798Z,0
2017-01-23T02:24:00.481Z,0
2017-01-23T02:25:01.163Z,0
2017-01-23T02:26:01.836Z,0
2017-01-23T02:27:02.518Z,0
2017-01-23T02:28:03.220Z,0
2017-01-23T02:29:03.884Z,0
2017-01-23T02:30:04.562Z,0
2017-01-23T02:31:05.232Z,0
2017-01-23T02:32:05.933Z,0
2017-01-23T02:33:06.605Z,0
2017-01-23T02:34:07.280Z,0
2017-01-23T02:35:07.941Z,0
2017-01-23T02:36:08.636Z,0
2017-01-23T02:37:09.310Z,0
2017-01-23T02:38:09.976Z,0
2017-01-23T02:39:10.654Z,0
2017-01-23T02:40:11.331Z,0
2017-01-23T02:41:11.997Z,0
2017-01-23T02:42:12.668Z,0
2017-01-23T02:43:13.348Z,0
2017-01-23T02:44:14.033Z,0
2017-01-23T02:45:14.702Z,0
2017-01-23T02:46:15.366Z,0
2017-01-23T02:47:16.065Z,0
2017-01-23T02:48:16.753Z,0
2017-01-23T02:49:17.430Z,0
2017-01-23T02:50:18.126Z,0
2017-01-23T02:51:18.828Z,0
2017-01-23T02:52:19.504Z,0
2017-01-23T02:53:20.170Z,0
2017-01-23T02:54:20.849Z,0
2017-01-23T02:55:21.541Z,0
2017-01-23T02:56:22.200Z,0
2017-01-23T02:57:22.874Z,0
2017-01-23T02:58:23.553Z,0
2017-01-23T02:59:24.212Z,0
2017-01-23T03:00:24.889Z,0
2017-01-23T03:01:25.559Z,0
2017-01-23T03:02:26.229Z,0
2017-01-23T03:03:26.897Z,0
2017-01-23T03:04:27.574Z,0
2017-01-23T03:05:28.256Z,0
2017-01-23T03:06:28.952Z,0
2017-01-23T03:07:29.596Z,0
2017-01-23T03:08:30.282Z,0
2017-01-23T03:09:30.968Z,0
2017-01-23T03:10:31.637Z,0
2017-01-23T03:11:32.307Z,0
2017-01-23T03:12:32.987Z,0
2017-01-23T03:13:33.653Z,0
2017-01-23T03:14:34.333Z,0
2017-01-23T03:15:35.000Z,0
2017-01-23T03:16:35.696Z,0
2017-01-23T03:17:36.377Z,0
2017-01-23T03:18:37.045Z,0
2017-01-23T03:19:37.726Z,0
2017-01-23T03:20:38.431Z,0
2017-01-23T03:21:39.101Z,0
2017-01-23T03:22:39.765Z,0
2017-01-23T03:23:40.439Z,0
2017-01-23T03:24:41.116Z,0
2017-01-23T03:25:41.778Z,0
2017-01-23T03:26:42.461Z,0
2017-01-23T03:27:43.131Z,0
2017-01-23T03:28:43.821Z,0
2017-01-23T03:29:44.499Z,0
2017-01-23T03:30:45.180Z,0
2017-01-23T03:31:45.859Z,0
2017-01-23T03:32:46.536Z,0
2017-01-23T03:33:47.241Z,0
2017-01-23T03:34:47.894Z,0
2017-01-23T03:35:48.563Z,0
2017-01-23T03:36:49.250Z,0
2017-01-23T03:37:49.926Z,0
2017-01-23T03:38:50.615Z,0
2017-01-23T03:39:51.283Z,0
2017-01-23T03:40:51.950Z,0
2017-01-23T03:41:52.627Z,0
2017-01-23T03:42:53.297Z,0
2017-01-23T03:43:53.977Z,0
2017-01-23T03:44:54.644Z,0
2017-01-23T03:45:55.320Z,0
2017-01-23T03:46:56.001Z,0
2017-01-23T03:47:56.666Z,0
2017-01-23T03:48:57.336Z,0
2017-01-23T03:49:58.011Z,0
2017-01-23T03:50:58.677Z,0
2017-01-23T03:51:59.352Z,0
2017-01-23T03:53:00.029Z,0
2017-01-23T03:54:00.702Z,0
2017-01-23T03:55:01.367Z,0
2017-01-23T03:56:02.050Z,0
2017-01-23T03:57:02.748Z,0
2017-01-23T03:58:03.424Z,0
2017-01-23T03:59:04.091Z,0
2017-01-23T04:00:04.766Z,0
2017-01-23T04:01:05.457Z,0
2017-01-23T04:02:06.153Z,0
2017-01-23T04:03:06.835Z,0
2017-01-23T04:04:07.516Z,0
2017-01-23T04:05:08.186Z,0
2017-01-23T04:06:08.855Z,0
2017-01-23T04:07:09.529Z,0
2017-01-23T04:08:10.204Z,0
2017-01-23T04:09:10.878Z,0
2017-01-23T04:10:11.548Z,0
2017-01-23T04:11:12.245Z,0
2017-01-23T04:12:12.927Z,0
2017-01-23T04:13:13.608Z,0
2017-01-23T04:14:14.286Z,0
2017-01-23T04:15:14.952Z,0
2017-01-23T04:16:15.626Z,0
2017-01-23T04:17:16.296Z,0
2017-01-23T04:18:16.989Z,0
2017-01-23T04:19:17.655Z,0
2017-01-23T04:20:18.324Z,0
2017-01-23T04:21:18.988Z,0
2017-01-23T04:22:19.661Z,0
2017-01-23T04:23:20.331Z,0
2017-01-23T04:24:20.995Z,0
2017-01-23T04:25:21.664Z,0
2017-01-23T04:26:22.354Z,0
2017-01-23T04:27:23.020Z,0
2017-01-23T04:28:23.692Z,0
2017-01-23T04:29:24.362Z,0
2017-01-23T04:30:25.037Z,0
2017-01-23T04:31:25.713Z,0
2017-01-23T04:32:26.379Z,0
2017-01-23T04:33:27.050Z,0
2017-01-23T04:34:27.719Z,0
2017-01-23T04:35:28.407Z,0
2017-01-23T04:36:29.088Z,0
2017-01-23T04:37:29.751Z,0
2017-01-23T04:38:30.416Z,0
2017-01-23T04:39:31.083Z,0
2017-01-23T04:40:31.760Z,0
2017-01-23T04:41:32.431Z,0
2017-01-23T04:42:33.108Z,0
2017-01-23T04:43:33.791Z,0
2017-01-23T04:44:34.463Z,0
2017-01-23T04:45:35.131Z,0
2017-01-23T04:46:35.824Z,0
2017-01-23T04:47:36.523Z,0
2017-01-23T04:48:37.198Z,0
2017-01-23T04:49:37.882Z,0
2017-01-23T04:50:38.543Z,0
2017-01-23T04:51:39.212Z,0
2017-01-23T04:52:39.891Z,0
2017-01-23T04:53:40.563Z,0
2017-01-23T04:54:41.232Z,0
2017-01-23T04:55:41.898Z,0
2017-01-23T04:56:42.581Z,0
2017-01-23T04:57:43.262Z,0
2017-01-23T04:58:43.931Z,0
2017-01-23T04:59:44.616Z,0
2017-01-23T05:00:45.282Z,0
2017-01-23T05:01:45.957Z,0
2017-01-23T05:02:46.619Z,0
2017-01-23T05:03:47.297Z,0
2017-01-23T05:04:47.971Z,0
2017-01-23T05:05:48.637Z,0
2017-01-23T05:06:49.315Z,0
2017-01-23T05:07:49.977Z,0
2017-01-23T05:08:50.649Z,0
2017-01-23T05:09:51.326Z,0
2017-01-23T05:10:51.998Z,0
2017-01-23T05:11:52.682Z,0
2017-01-23T05:12:53.356Z,0
2017-01-23T05:13:54.031Z,0
2017-01-23T05:14:54.697Z,0
2017-01-23T05:15:55.384Z,0
2017-01-23T05:16:56.095Z,0
2017-01-23T05:17:56.732Z,0
2017-01-23T05:18:57.397Z,0
2017-01-23T05:19:58.079Z,0
2017-01-23T05:20:58.775Z,0
2017-01-23T05:21:59.441Z,0
2017-01-23T05:23:00.113Z,0
2017-01-23T05:24:00.802Z,0
2017-01-23T05:25:01.480Z,0
2017-01-23T05:26:02.154Z,0
2017-01-23T05:27:02.835Z,0
2017-01-23T05:28:03.502Z,0
2017-01-23T05:29:04.169Z,0
2017-01-23T05:30:04.847Z,0
2017-01-23T05:31:05.518Z,0
2017-01-23T05:32:06.189Z,0
2017-01-23T05:33:06.862Z,0
2017-01-23T05:34:07.533Z,0
2017-01-23T05:35:08.207Z,0
2017-01-23T05:36:08.874Z,0
2017-01-23T05:37:09.551Z,0
2017-01-23T05:38:10.215Z,0
2017-01-23T05:39:10.885Z,0
2017-01-23T05:40:11.567Z,0
2017-01-23T05:41:12.244Z,0
2017-01-23T05:42:12.922Z,0
2017-01-23T05:43:13.590Z,0
2017-01-23T05:44:14.270Z,0
2017-01-23T05:45:14.969Z,0
2017-01-23T05:46:15.645Z,0
2017-01-23T05:47:16.322Z,0
2017-01-23T05:48:16.997Z,0
2017-01-23T05:49:17.683Z,0
2017-01-23T05:50:18.359Z,0
2017-01-23T05:51:19.028Z,0
2017-01-23T05:52:19.700Z,0
2017-01-23T05:53:20.389Z,0
2017-01-23T05:54:21.091Z,0
2017-01-23T05:55:21.763Z,0
2017-01-23T05:56:22.425Z,0
2017-01-23T05:57:23.091Z,0
2017-01-23T05:58:23.761Z,0
2017-01-23T05:59:24.434Z,0
2017-01-23T06:00:25.120Z,0
2017-01-23T06:01:25.795Z,0
2017-01-23T06:02:26.470Z,0
2017-01-23T06:03:27.145Z,0
2017-01-23T06:04:27.829Z,0
2017-01-23T06:05:28.530Z,0
2017-01-23T06:06:29.207Z,0
2017-01-23T06:07:29.910Z,0
2017-01-23T06:08:30.609Z,0
2017-01-23T06:09:31.291Z,0
2017-01-23T06:10:31.966Z,0
2017-01-23T06:11:32.639Z,0
2017-01-23T06:12:33.308Z,0
2017-01-23T06:13:33.981Z,0
2017-01-23T06:14:34.649Z,0
2017-01-23T06:15:35.331Z,0
2017-01-23T06:16:36.015Z,0
2017-01-23T06:17:36.673Z,0
2017-01-23T06:18:37.348Z,0
2017-01-23T06:19:38.019Z,0
2017-01-23T06:20:38.692Z,0
2017-01-23T06:21:39.368Z,0
2017-01-23T06:22:40.026Z,0
2017-01-23T06:23:40.707Z,0
2017-01-23T06:24:41.387Z,0
2017-01-23T06:25:42.087Z,0
2017-01-23T06:26:42.739Z,0
2017-01-23T06:27:43.421Z,0
2017-01-23T06:28:44.098Z,0
2017-01-23T06:29:44.764Z,0
2017-01-23T06:30:45.437Z,0
2017-01-23T06:31:46.107Z,0
2017-01-23T06:32:46.782Z,0
2017-01-23T06:33:47.452Z,0
2017-01-23T06:34:48.150Z,0
2017-01-23T06:35:48.842Z,0
2017-01-23T06:36:49.534Z,0
2017-01-23T06:37:50.208Z,0
2017-01-23T06:38:50.869Z,0
2017-01-23T06:39:51.565Z,0
2017-01-23T06:40:52.259Z,0
2017-01-23T06:41:52.949Z,0
2017-01-23T06:42:53.592Z,0
2017-01-23T06:43:54.265Z,0
2017-01-23T06:44:54.944Z,0
2017-01-23T06:45:55.632Z,0
2017-01-23T06:46:56.306Z,0
2017-01-23T06:47:56.976Z,0
2017-01-23T06:48:57.666Z,0
2017-01-23T06:49:58.337Z,0
2017-01-23T06:50:59.027Z,0
2017-01-23T06:51:59.699Z,0
2017-01-23T06:53:00.371Z,0
2017-01-23T06:54:01.037Z,0
2017-01-23T06:55:01.739Z,0
2017-01-23T06:56:02.432Z,0
2017-01-23T06:57:03.113Z,0
2017-01-23T06:58:03.792Z,0
2017-01-23T06:59:04.469Z,0
2017-01-23T07:00:05.143Z,0
2017-01-23T07:01:05.848Z,0
2017-01-23T07:02:06.510Z,0
2017-01-23T07:03:07.193Z,0
2017-01-23T07:04:07.871Z,0
2017-01-23T07:05:08.538Z,0
2017-01-23T07:06:09.226Z,0
2017-01-23T07:07:09.902Z,0
2017-01-23T07:08:10.581Z,0
2017-01-23T07:09:11.245Z,0
2017-01-23T07:10:11.925Z,0
2017-01-23T07:11:12.598Z,0
2017-01-23T07:12:13.307Z,0
2017-01-23T07:13:13.994Z,0
2017-01-23T07:14:14.660Z,0
2017-01-23T07:15:15.342Z,0
2017-01-23T07:16:16.026Z,0
2017-01-23T07:17:16.702Z,0
2017-01-23T07:18:17.376Z,0
2017-01-23T07:19:18.089Z,0
2017-01-23T07:20:18.771Z,0
2017-01-23T07:21:19.436Z,0
2017-01-23T07:22:20.117Z,0
2017-01-23T07:23:20.816Z,0
2017-01-23T07:24:21.483Z,0
2017-01-23T07:25:22.210Z,0
2017-01-23T07:26:22.872Z,0
2017-01-23T07:27:23.562Z,0
2017-01-23T07:28:24.285Z,0
2017-01-23T07:29:24.966Z,0
2017-01-23T07:30:25.631Z,0
2017-01-23T07:31:26.307Z,0
2017-01-23T07:32:26.977Z,0
2017-01-23T07:33:27.661Z,0
2017-01-23T07:34:28.339Z,0
2017-01-23T07:35:29.064Z,5
2017-01-23T07:36:29.755Z,5
2017-01-23T07:37:30.452Z,5
2017-01-23T07:38:31.124Z,5
2017-01-23T07:39:31.812Z,5
2017-01-23T07:40:32.504Z,5
2017-01-23T07:41:33.199Z,5
2017-01-23T07:42:33.887Z,5
2017-01-23T07:43:34.585Z,5
2017-01-23T07:44:35.305Z,5
2017-01-23T07:45:35.980Z,5
2017-01-23T07:46:36.645Z,5
2017-01-23T07:47:37.316Z,5
2017-01-23T07:48:38.059Z,5
2017-01-23T07:49:38.714Z,5
2017-01-23T07:50:39.412Z,10
2017-01-23T07:51:40.089Z,10
2017-01-23T07:52:40.775Z,10
2017-01-23T07:53:41.456Z,10
2017-01-23T07:54:42.131Z,10
2017-01-23T07:55:42.803Z,10
2017-01-23T07:56:43.488Z,10
2017-01-23T07:57:44.153Z,10
2017-01-23T07:58:44.820Z,15
2017-01-23T07:59:45.496Z,15
2017-01-23T08:00:46.173Z,15
2017-01-23T08:01:46.853Z,15
2017-01-23T08:02:47.518Z,20
2017-01-23T08:03:48.187Z,20
2017-01-23T08:04:48.863Z,20
2017-01-23T08:05:49.538Z,20
2017-01-23T08:06:50.213Z,25
2017-01-23T08:07:50.877Z,30
2017-01-23T08:08:51.557Z,30
2017-01-23T08:09:52.244Z,30
2017-01-23T08:10:52.919Z,30
2017-01-23T08:11:53.597Z,30
2017-01-23T08:12:54.275Z,30
2017-01-23T08:13:54.960Z,30
2017-01-23T08:14:55.635Z,30
2017-01-23T08:15:56.304Z,30
2017-01-23T08:16:56.985Z,30
2017-01-23T08:17:57.662Z,30
2017-01-23T08:18:58.329Z,30
2017-01-23T08:19:59.009Z,30
2017-01-23T08:20:59.685Z,30
2017-01-23T08:22:00.372Z,35
2017-01-23T08:23:01.048Z,35
2017-01-23T08:24:01.737Z,40
2017-01-23T08:25:02.409Z,40
2017-01-23T08:26:03.096Z,45
2017-01-23T08:27:03.776Z,45
2017-01-23T08:28:04.442Z,45
2017-01-23T08:29:05.126Z,50
2017-01-23T08:30:05.810Z,50
2017-01-23T08:31:06.492Z,50
2017-01-23T08:32:07.189Z,50
2017-01-23T08:33:07.863Z,55
2017-01-23T08:34:08.535Z,60
2017-01-23T08:35:09.210Z,60
2017-01-23T08:36:09.875Z,55
2017-01-23T08:37:10.560Z,55
2017-01-23T08:38:11.227Z,50
2017-01-23T08:39:11.924Z,45
2017-01-23T08:40:12.608Z,50
2017-01-23T08:41:13.285Z,55
2017-01-23T08:42:13.957Z,65
2017-01-23T08:43:14.633Z,70
2017-01-23T08:44:15.341Z,75
2017-01-23T08:45:16.023Z,80
2017-01-23T08:46:16.702Z,85
2017-01-23T08:47:17.376Z,85
2017-01-23T08:48:18.058Z,90
2017-01-23T08:49:18.740Z,85
2017-01-23T08:50:19.416Z,85
2017-01-23T08:51:20.081Z,85
2017-01-23T08:52:20.756Z,80
2017-01-23T08:53:21.436Z,75
2017-01-23T08:54:22.098Z,75
2017-01-23T08:55:22.781Z,75
2017-01-23T08:56:23.464Z,75
2017-01-23T08:57:24.144Z,80
2017-01-23T08:58:24.806Z,90
2017-01-23T08:59:25.503Z,100
2017-01-23T09:00:26.188Z,95
2017-01-23T09:01:26.859Z,90
2017-01-23T09:02:27.552Z,90
2017-01-23T09:03:28.246Z,95
2017-01-23T09:04:28.910Z,90
2017-01-23T09:05:29.619Z,95
2017-01-23T09:06:30.297Z,90
2017-01-23T09:07:30.972Z,85
2017-01-23T09:08:31.656Z,85
2017-01-23T09:09:32.337Z,95
2017-01-23T09:10:33.018Z,105
2017-01-23T09:11:33.687Z,110
2017-01-23T09:12:34.355Z,110
2017-01-23T09:13:35.033Z,115
2017-01-23T09:14:35.715Z,115
2017-01-23T09:15:36.422Z,110
2017-01-23T09:16:37.096Z,115
2017-01-23T09:17:37.780Z,110
2017-01-23T09:18:38.444Z,95
2017-01-23T09:19:39.130Z,90
2017-01-23T09:20:39.814Z,95
2017-01-23T09:21:40.498Z,105
2017-01-23T09:22:41.181Z,110
2017-01-23T09:23:41.864Z,110
2017-01-23T09:24:42.540Z,105
2017-01-23T09:25:43.210Z,95
2017-01-23T09:26:43.879Z,110
2017-01-23T09:27:44.556Z,125
2017-01-23T09:28:45.226Z,125
2017-01-23T09:29:45.906Z,115
2017-01-23T09:30:46.563Z,120
2017-01-23T09:31:47.237Z,130
2017-01-23T09:32:47.901Z,135
2017-01-23T09:33:48.596Z,135
2017-01-23T09:34:49.262Z,135
2017-01-23T09:35:49.934Z,135
2017-01-23T09:36:50.606Z,130
2017-01-23T09:37:51.274Z,125
2017-01-23T09:38:52.150Z,130
2017-01-23T09:39:52.842Z,150
2017-01-23T09:40:53.512Z,150
2017-01-23T09:41:54.195Z,155
2017-01-23T09:42:54.873Z,155
2017-01-23T09:43:55.553Z,155
2017-01-23T09:44:56.219Z,155
2017-01-23T09:45:56.895Z,160
2017-01-23T09:46:57.578Z,165
2017-01-23T09:47:58.282Z,155
2017-01-23T09:48:58.969Z,130
2017-01-23T09:49:59.637Z,125
2017-01-23T09:51:00.320Z,135
2017-01-23T09:52:01.025Z,130
2017-01-23T09:53:01.690Z,130
2017-01-23T09:54:02.369Z,150
2017-01-23T09:55:03.051Z,155
2017-01-23T09:56:03.718Z,155
2017-01-23T09:57:04.409Z,160
2017-01-23T09:58:05.097Z,160
2017-01-23T09:59:05.810Z,165
2017-01-23T10:00:06.491Z,165
2017-01-23T10:01:07.176Z,175
2017-01-23T10:02:07.857Z,180
2017-01-23T10:03:08.533Z,165
2017-01-23T10:04:09.205Z,170
2017-01-23T10:05:09.883Z,175
2017-01-23T10:06:10.569Z,170
2017-01-23T10:07:11.242Z,170
2017-01-23T10:08:11.933Z,160
2017-01-23T10:09:12.636Z,165
2017-01-23T10:10:13.315Z,170
2017-01-23T10:11:13.989Z,175
2017-01-23T10:12:14.672Z,175
2017-01-23T10:13:15.358Z,175
2017-01-23T10:14:16.039Z,175
2017-01-23T10:15:16.780Z,170
2017-01-23T10:16:17.441Z,165
2017-01-23T10:17:18.128Z,165
2017-01-23T10:18:18.805Z,180
2017-01-23T10:19:19.496Z,185
2017-01-23T10:20:20.195Z,195
2017-01-23T10:21:20.868Z,200
2017-01-23T10:22:21.547Z,190
2017-01-23T10:23:22.221Z,195
2017-01-23T10:24:22.915Z,205
2017-01-23T10:25:23.592Z,210
2017-01-23T10:26:24.286Z,220
2017-01-23T10:27:24.975Z,225
2017-01-23T10:28:25.669Z,245
2017-01-23T10:29:26.335Z,240
2017-01-23T10:30:27.053Z,230
2017-01-23T10:31:27.730Z,230
2017-01-23T10:32:28.404Z,235
2017-01-23T10:33:29.079Z,240
2017-01-23T10:34:29.791Z,240
2017-01-23T10:35:30.460Z,245
2017-01-23T10:36:31.142Z,250
2017-01-23T10:37:31.824Z,250
2017-01-23T10:38:32.498Z,255
2017-01-23T10:39:33.173Z,265
2017-01-23T10:40:33.885Z,275
2017-01-23T10:41:34.560Z,285
2017-01-23T10:42:35.241Z,295
2017-01-23T10:43:35.943Z,300
2017-01-23T10:44:36.610Z,305
2017-01-23T10:45:37.285Z,290
2017-01-23T10:46:37.956Z,265
2017-01-23T10:47:38.659Z,255
2017-01-23T10:48:39.331Z,250
2017-01-23T10:49:40.003Z,245
2017-01-23T10:50:40.685Z,245
2017-01-23T10:51:41.374Z,240
2017-01-23T10:52:42.054Z,225
2017-01-23T10:53:42.876Z,220
2017-01-23T10:54:43.633Z,220
2017-01-23T10:55:44.436Z,210
2017-01-23T10:56:45.200Z,210
2017-01-23T10:57:45.881Z,210
2017-01-23T10:58:46.558Z,210
2017-01-23T10:59:47.250Z,215
2017-01-23T11:00:47.935Z,215
2017-01-23T11:01:48.623Z,205
2017-01-23T11:02:49.303Z,195
2017-01-23T11:03:50.002Z,195
2017-01-23T11:04:50.682Z,190
2017-01-23T11:05:51.391Z,180
2017-01-23T11:06:52.075Z,175
2017-01-23T11:07:52.749Z,180
2017-01-23T11:08:53.429Z,190
2017-01-23T11:09:54.113Z,195
2017-01-23T11:10:54.812Z,190
2017-01-23T11:11:55.496Z,180
2017-01-23T11:12:56.192Z,175
2017-01-23T11:13:56.891Z,180
2017-01-23T11:14:57.579Z,180
2017-01-23T11:15:58.259Z,170
2017-01-23T11:16:58.958Z,165
2017-01-23T11:17:59.628Z,160
2017-01-23T11:19:00.299Z,160
2017-01-23T11:20:00.981Z,160
2017-01-23T11:21:01.676Z,160
2017-01-23T11:22:02.355Z,160
2017-01-23T11:23:03.064Z,160
2017-01-23T11:24:03.753Z,160
2017-01-23T11:25:04.445Z,165
2017-01-23T11:26:05.114Z,160
2017-01-23T11:27:05.786Z,160
2017-01-23T11:28:06.453Z,160
2017-01-23T11:29:07.154Z,160
2017-01-23T11:30:07.832Z,165
2017-01-23T11:31:08.527Z,165
2017-01-23T11:32:09.226Z,165
2017-01-23T11:33:09.885Z,170
2017-01-23T11:34:10.573Z,180
2017-01-23T11:35:11.245Z,180
2017-01-23T11:36:11.927Z,180
2017-01-23T11:37:12.614Z,180
2017-01-23T11:38:13.304Z,175
2017-01-23T11:39:13.985Z,175
2017-01-23T11:40:14.667Z,175
2017-01-23T11:41:15.345Z,175
2017-01-23T11:42:16.040Z,175
2017-01-23T11:43:16.714Z,175
2017-01-23T11:44:17.391Z,175
2017-01-23T11:45:18.063Z,170
2017-01-23T11:46:18.731Z,175
2017-01-23T11:47:19.416Z,175
2017-01-23T11:48:20.098Z,180
2017-01-23T11:49:20.788Z,185
2017-01-23T11:50:21.473Z,170
2017-01-23T11:51:22.159Z,155
2017-01-23T11:52:22.833Z,150
2017-01-23T11:53:23.501Z,155
2017-01-23T11:54:24.177Z,155
2017-01-23T11:55:24.860Z,155
2017-01-23T11:56:25.535Z,155
2017-01-23T11:57:26.215Z,160
2017-01-23T11:58:26.914Z,165
2017-01-23T11:59:27.586Z,175
2017-01-23T12:00:28.274Z,180
2017-01-23T12:01:28.943Z,180
2017-01-23T12:02:29.614Z,180
2017-01-23T12:03:30.320Z,180
2017-01-23T12:04:31.035Z,180
2017-01-23T12:05:31.723Z,185
2017-01-23T12:06:32.409Z,180
2017-01-23T12:07:33.112Z,175
2017-01-23T12:08:33.782Z,165
2017-01-23T12:09:34.464Z,165
2017-01-23T12:10:35.146Z,165
2017-01-23T12:11:35.821Z,170
2017-01-23T12:12:36.521Z,165
2017-01-23T12:13:37.193Z,155
2017-01-23T12:14:37.868Z,145
2017-01-23T12:15:38.580Z,140
2017-01-23T12:16:39.268Z,140
2017-01-23T12:17:39.944Z,145
2017-01-23T12:18:40.640Z,160
2017-01-23T12:19:41.322Z,160
2017-01-23T12:20:42.013Z,155
2017-01-23T12:21:42.693Z,150
2017-01-23T12:22:43.356Z,150
2017-01-23T12:23:44.048Z,155
2017-01-23T12:24:44.744Z,155
2017-01-23T12:25:45.410Z,160
2017-01-23T12:26:46.135Z,160
2017-01-23T12:27:46.811Z,160
2017-01-23T12:28:47.480Z,160
2017-01-23T12:29:48.166Z,155
2017-01-23T12:30:48.861Z,150
2017-01-23T12:31:49.533Z,150
2017-01-23T12:32:50.234Z,150
2017-01-23T12:33:50.926Z,145
2017-01-23T12:34:51.602Z,130
2017-01-23T12:35:52.279Z,115
2017-01-23T12:36:52.953Z,110
2017-01-23T12:37:53.624Z,115
2017-01-23T12:38:54.314Z,110
2017-01-23T12:39:55.021Z,105
2017-01-23T12:40:55.719Z,105
2017-01-23T12:41:56.415Z,110
2017-01-23T12:42:57.092Z,105
2017-01-23T12:43:57.748Z,105
2017-01-23T12:44:58.420Z,110
2017-01-23T12:45:59.099Z,110
2017-01-23T12:46:59.772Z,120
2017-01-23T12:48:00.440Z,120
2017-01-23T12:49:01.110Z,110
2017-01-23T12:50:01.787Z,105
2017-01-23T12:51:02.455Z,90
2017-01-23T12:52:03.135Z,90
2017-01-23T12:53:03.802Z,85
2017-01-23T12:54:04.472Z,85
2017-01-23T12:55:05.139Z,85
2017-01-23T12:56:05.857Z,85
2017-01-23T12:57:06.541Z,100
2017-01-23T12:58:07.211Z,115
2017-01-23T12:59:07.891Z,135
2017-01-23T13:00:08.578Z,145
2017-01-23T13:01:09.320Z,135
2017-01-23T13:02:10.004Z,125
2017-01-23T13:03:10.685Z,115
2017-01-23T13:04:11.380Z,105
2017-01-23T13:05:12.060Z,100
2017-01-23T13:06:12.733Z,105
2017-01-23T13:07:13.420Z,105
2017-01-23T13:08:14.093Z,110
2017-01-23T13:09:14.785Z,110
2017-01-23T13:10:15.474Z,110
2017-01-23T13:11:16.146Z,115
2017-01-23T13:12:16.819Z,115
2017-01-23T13:13:17.492Z,110
2017-01-23T13:14:18.174Z,110
2017-01-23T13:15:18.837Z,115
2017-01-23T13:16:19.513Z,110
2017-01-23T13:17:20.189Z,110
2017-01-23T13:18:20.862Z,110
2017-01-23T13:19:21.547Z,105
2017-01-23T13:20:22.223Z,110
2017-01-23T13:21:22.892Z,110
2017-01-23T13:22:23.617Z,115
2017-01-23T13:23:24.337Z,110
2017-01-23T13:24:24.994Z,110
2017-01-23T13:25:25.660Z,115
2017-01-23T13:26:26.349Z,120
2017-01-23T13:27:27.026Z,125
2017-01-23T13:28:27.785Z,120
2017-01-23T13:29:28.452Z,120
2017-01-23T13:30:29.268Z,115
2017-01-23T13:31:29.864Z,115
2017-01-23T13:32:30.538Z,110
2017-01-23T13:33:31.226Z,120
2017-01-23T13:34:31.918Z,130
2017-01-23T13:35:32.599Z,130
2017-01-23T13:36:33.278Z,120
2017-01-23T13:37:34.060Z,115
2017-01-23T13:38:34.729Z,120
2017-01-23T13:39:35.428Z,115
2017-01-23T13:40:36.280Z,105
2017-01-23T13:41:36.979Z,105
2017-01-23T13:42:37.760Z,105
2017-01-23T13:43:38.442Z,105
2017-01-23T13:44:39.117Z,100
2017-01-23T13:45:39.888Z,85
2017-01-23T13:46:40.563Z,75
2017-01-23T13:47:41.249Z,70
2017-01-23T13:48:41.919Z,75
2017-01-23T13:49:42.601Z,85
2017-01-23T13:50:43.377Z,90
2017-01-23T13:51:44.066Z,90
2017-01-23T13:52:44.794Z,90
2017-01-23T13:53:45.513Z,95
2017-01-23T13:54:46.197Z,95
2017-01-23T13:55:46.899Z,95
2017-01-23T13:56:47.588Z,95
2017-01-23T13:57:48.252Z,95
2017-01-23T13:58:48.930Z,90
2017-01-23T13:59:49.613Z,90
2017-01-23T14:00:50.303Z,90
2017-01-23T14:01:50.963Z,85
2017-01-23T14:02:51.647Z,85
2017-01-23T14:03:52.327Z,85
2017-01-23T14:04:53.039Z,80
2017-01-23T14:05:53.704Z,80
2017-01-23T14:06:54.463Z,75
2017-01-23T14:07:55.143Z,75
2017-01-23T14:08:55.820Z,70
2017-01-23T14:09:56.509Z,65
2017-01-23T14:10:57.178Z,65
2017-01-23T14:11:57.870Z,65
2017-01-23T14:12:58.547Z,60
2017-01-23T14:13:59.228Z,60
2017-01-23T14:14:59.907Z,65
2017-01-23T14:16:00.603Z,60
2017-01-23T14:17:01.295Z,65
2017-01-23T14:18:01.965Z,70
2017-01-23T14:19:02.638Z,70
2017-01-23T14:20:03.310Z,65
2017-01-23T14:21:04.009Z,65
2017-01-23T14:22:04.710Z,65
2017-01-23T14:23:05.397Z,60
2017-01-23T14:24:06.079Z,60
2017-01-23T14:25:06.776Z,60
2017-01-23T14:26:07.886Z,60
2017-01-23T14:27:08.525Z,55
2017-01-23T14:28:09.255Z,50
2017-01-23T14:29:09.919Z,50
2017-01-23T14:30:10.656Z,50
2017-01-23T14:31:11.392Z,50
2017-01-23T14:32:12.042Z,50